Piper, Iowa
Current Conditions -  °F | °C
As of 12:15 PM on Monday 22 Dec 2014 (Local Time) from KCIN Reporting Station
Unknown Precip Unknown Precip  
Wind Chill: 33°   Ceiling: 700
Heat Index: 41°   Visibility: 4mi
Dew Point: 41°   Wind: 14mph
Humidity: 100%   Direction: 150°SSE
Pressure: 29.48"   Gusts: NA
Location:  42.385°N, 94.6304°W
Report Text: KCIN 221815Z AUTO 15012KT 4SM -UP OVC007 05/05 A2948 RMK AO2
Loading
Personal Weather Stations






























Interactive Weather Map New forecast layout! Learn more

10-Day Weather Forecast

Advertisements
Track Severe Weather on mobile